Temp: 6.8°C   Baro: 1024.5mb
  Wind: 2.9mph   Dir: WNW (289°)
  Rain: 0.2mm (0.0mm/hr)
  Solar: 0W/m2  Hum: 93%
 
Bath Spa Weather Historical Data
 
Daily Summary for March 18, 2019 Units:  Metric    English   Both
Next Day »
Daily Weekly Monthly Yearly Custom
  Current: High: Low: Average:
Temperature: 6.7 °C 8.8 °C 2.9 °C 6.6 °C
Dew Point: 5.6 °C 6.6 °C 1.1 °C 4.4 °C
Humidity: 93% 93% 74% 86%
Wind Speed: 3.2km/h 25.7km/h 0.0km/h 6.2km/h
Wind Gust: 4.8km/h 33.8km/h - -
Wind directionWNW - - WNW
Pressure: 1024.3 hPa 1024.3 hPa 1016.8 hPa -
Precipitation: 0.3 mm      
Historical Graphs
 
 
Tabular Data for March 18, 2019
Time Temperature Dew Point Pressure Wind direction Wind Speed Wind Gust Humidity Rainfall Rate (Hourly) solar
00:04 4.8 °C 3.1 °C 1016.8 hPa WNW 6.4 km/h 8.0 km/h 89% 0.0 mm 0.00 W/m2
00:09 5.0 °C 3.2 °C 1016.8 hPa WNW 7.9 km/h 11.3 km/h 88% 0.0 mm 0.00 W/m2
00:14 5.3 °C 3.3 °C 1016.8 hPa NW 4.7 km/h 12.9 km/h 87% 0.0 mm 0.00 W/m2
00:19 5.4 °C 3.2 °C 1016.8 hPa NW 6.4 km/h 12.9 km/h 86% 0.0 mm 0.00 W/m2
00:24 5.4 °C 3.2 °C 1016.8 hPa NW 4.7 km/h 9.7 km/h 86% 0.0 mm 0.00 W/m2
00:29 5.4 °C 3.1 °C 1016.8 hPa NW 6.4 km/h 12.9 km/h 85% 0.0 mm 0.00 W/m2
00:34 5.5 °C 3.0 °C 1017.2 hPa NW 9.7 km/h 12.9 km/h 84% 0.0 mm 0.00 W/m2
00:39 5.6 °C 2.9 °C 1017.2 hPa NW 7.9 km/h 12.9 km/h 83% 0.0 mm 0.00 W/m2
00:44 5.7 °C 2.9 °C 1017.2 hPa WNW 11.1 km/h 11.3 km/h 82% 0.0 mm 0.00 W/m2
00:49 5.7 °C 2.9 °C 1017.5 hPa NW 6.4 km/h 6.4 km/h 82% 0.0 mm 0.00 W/m2
00:54 5.5 °C 2.5 °C 1017.5 hPa NW 1.4 km/h 3.2 km/h 81% 0.0 mm 0.00 W/m2
00:59 5.4 °C 2.4 °C 1017.5 hPa NW 1.4 km/h 6.4 km/h 81% 0.0 mm 0.00 W/m2
01:04 5.2 °C 2.4 °C 1017.5 hPa NW 1.4 km/h 3.2 km/h 82% 0.0 mm 0.00 W/m2
01:09 4.9 °C 2.1 °C 1017.5 hPa NW 6.4 km/h 6.4 km/h 82% 0.0 mm 0.00 W/m2
01:14 5.0 °C 2.4 °C 1017.5 hPa WNW 4.7 km/h 9.7 km/h 83% 0.0 mm 0.00 W/m2
01:19 5.0 °C 2.4 °C 1017.8 hPa WNW 3.2 km/h 3.2 km/h 83% 0.0 mm 0.00 W/m2
01:24 4.8 °C 2.0 °C 1017.8 hPa WNW 3.2 km/h 9.7 km/h 82% 0.0 mm 0.00 W/m2
01:29 4.7 °C 2.1 °C 1017.8 hPa WNW 1.4 km/h 4.8 km/h 83% 0.0 mm 0.00 W/m2
01:34 4.5 °C 1.9 °C 1017.8 hPa WNW 3.2 km/h 4.8 km/h 83% 0.0 mm 0.00 W/m2
01:39 4.4 °C 1.9 °C 1017.8 hPa WNW 3.2 km/h 6.4 km/h 84% 0.0 mm 0.00 W/m2
01:44 4.4 °C 1.9 °C 1018.2 hPa WNW 3.2 km/h 4.8 km/h 84% 0.0 mm 0.00 W/m2
01:49 4.3 °C 1.8 °C 1018.2 hPa WNW 3.2 km/h 4.8 km/h 84% 0.0 mm 0.00 W/m2
01:54 4.1 °C 1.6 °C 1018.2 hPa WNW 4.7 km/h 6.4 km/h 84% 0.0 mm 0.00 W/m2
01:59 4.1 °C 1.8 °C 1018.2 hPa Calm   4.8 km/h 85% 0.0 mm 0.00 W/m2
02:04 3.9 °C 1.6 °C 1018.2 hPa WNW 3.2 km/h 4.8 km/h 85% 0.0 mm 0.00 W/m2
02:09 3.8 °C 1.5 °C 1017.8 hPa WNW 3.2 km/h 4.8 km/h 85% 0.0 mm 0.00 W/m2
02:14 3.7 °C 1.6 °C 1018.2 hPa WNW 3.2 km/h 3.2 km/h 86% 0.0 mm 0.00 W/m2
02:19 3.6 °C 1.5 °C 1018.2 hPa Calm   1.6 km/h 86% 0.0 mm 0.00 W/m2
02:24 3.5 °C 1.4 °C 1018.2 hPa WNW 1.4 km/h 3.2 km/h 86% 0.0 mm 0.00 W/m2
02:29 3.4 °C 1.3 °C 1018.2 hPa WNW 1.4 km/h 4.8 km/h 86% 0.0 mm 0.00 W/m2
02:34 3.4 °C 1.4 °C 1018.2 hPa Calm   3.2 km/h 87% 0.0 mm 0.00 W/m2
02:39 3.4 °C 1.4 °C 1018.2 hPa Calm   3.2 km/h 87% 0.0 mm 0.00 W/m2
02:44 3.5 °C 1.5 °C 1018.2 hPa WNW 1.4 km/h 1.6 km/h 87% 0.0 mm 0.00 W/m2
02:49 3.5 °C 1.5 °C 1018.5 hPa WNW 1.4 km/h 1.6 km/h 87% 0.0 mm 0.00 W/m2
02:54 3.4 °C 1.6 °C 1018.5 hPa Calm     88% 0.0 mm 0.00 W/m2
02:59 3.3 °C 1.5 °C 1018.5 hPa Calm     88% 0.0 mm 0.00 W/m2
03:04 3.2 °C 1.4 °C 1018.5 hPa Calm     88% 0.0 mm 0.00 W/m2
03:09 3.0 °C 1.2 °C 1018.5 hPa WNW 3.2 km/h 3.2 km/h 88% 0.0 mm 0.00 W/m2
03:14 3.0 °C 1.2 °C 1018.5 hPa WNW 3.2 km/h 4.8 km/h 88% 0.0 mm 0.00 W/m2
03:19 2.9 °C 1.1 °C 1018.5 hPa WNW 6.4 km/h 6.4 km/h 88% 0.0 mm 0.00 W/m2
03:24 3.0 °C 1.4 °C 1018.5 hPa WNW 4.7 km/h 6.4 km/h 89% 0.0 mm 0.00 W/m2
03:29 3.1 °C 1.5 °C 1018.5 hPa WNW 3.2 km/h 6.4 km/h 89% 0.0 mm 0.00 W/m2
03:34 3.0 °C 1.4 °C 1018.8 hPa WNW 4.7 km/h 4.8 km/h 89% 0.0 mm 0.00 W/m2
03:39 3.1 °C 1.5 °C 1018.8 hPa WNW 3.2 km/h 6.4 km/h 89% 0.0 mm 0.00 W/m2
03:44 3.2 °C 1.6 °C 1018.8 hPa Calm   4.8 km/h 89% 0.0 mm 0.00 W/m2
03:49 3.3 °C 1.7 °C 1018.8 hPa Calm   6.4 km/h 89% 0.0 mm 0.00 W/m2
03:54 3.2 °C 1.6 °C 1018.8 hPa WNW 1.4 km/h 3.2 km/h 89% 0.0 mm 0.00 W/m2
03:59 3.2 °C 1.7 °C 1018.8 hPa WNW 4.8 km/h 4.8 km/h 90% 0.0 mm 0.00 W/m2
04:04 3.3 °C 1.8 °C 1018.8 hPa WNW 3.2 km/h 4.8 km/h 90% 0.0 mm 0.00 W/m2
04:09 3.2 °C 1.7 °C 1018.8 hPa WNW 1.4 km/h 1.6 km/h 90% 0.0 mm 0.00 W/m2
04:14 3.0 °C 1.4 °C 1018.8 hPa Calm   1.6 km/h 89% 0.0 mm 0.00 W/m2
04:19 3.1 °C 1.6 °C 1018.8 hPa WNW 3.2 km/h 3.2 km/h 90% 0.0 mm 0.00 W/m2
04:24 3.2 °C 1.7 °C 1018.8 hPa WNW 4.7 km/h 4.8 km/h 90% 0.0 mm 0.00 W/m2
04:29 3.5 °C 2.0 °C 1018.8 hPa WNW 6.4 km/h 6.4 km/h 90% 0.0 mm 0.00 W/m2
04:34 3.8 °C 2.3 °C 1018.8 hPa WNW 8.0 km/h 8.0 km/h 90% 0.0 mm 0.00 W/m2
04:39 3.9 °C 2.4 °C 1019.2 hPa WNW 3.2 km/h 6.4 km/h 90% 0.0 mm 0.00 W/m2
04:44 4.1 °C 2.6 °C 1019.2 hPa WNW 4.7 km/h 8.0 km/h 90% 0.0 mm 0.00 W/m2
04:49 4.2 °C 2.7 °C 1019.2 hPa WNW 4.7 km/h 9.7 km/h 90% 0.0 mm 0.00 W/m2
04:54 4.3 °C 2.8 °C 1019.5 hPa WNW 3.2 km/h 8.0 km/h 90% 0.0 mm 0.00 W/m2
04:59 4.3 °C 2.8 °C 1019.5 hPa WNW 6.4 km/h 8.0 km/h 90% 0.0 mm 0.00 W/m2
05:04 4.3 °C 2.6 °C 1019.5 hPa WNW 6.4 km/h 11.3 km/h 89% 0.0 mm 0.00 W/m2
05:09 4.3 °C 2.6 °C 1019.5 hPa WNW 3.2 km/h 8.0 km/h 89% 0.0 mm 0.00 W/m2
05:14 4.5 °C 2.8 °C 1019.5 hPa NW 7.9 km/h 9.7 km/h 89% 0.0 mm 0.00 W/m2
05:19 4.5 °C 2.8 °C 1019.5 hPa NW 13.0 km/h 12.9 km/h 89% 0.0 mm 0.00 W/m2
05:24 4.7 °C 3.0 °C 1019.5 hPa NW 6.4 km/h 11.3 km/h 89% 0.0 mm 0.00 W/m2
05:29 4.7 °C 3.0 °C 1019.5 hPa NW 1.4 km/h 9.7 km/h 89% 0.0 mm 0.00 W/m2
05:34 4.7 °C 3.0 °C 1019.5 hPa NW 1.4 km/h 9.7 km/h 89% 0.0 mm 0.00 W/m2
05:39 4.8 °C 3.1 °C 1019.5 hPa NW 3.2 km/h 11.3 km/h 89% 0.0 mm 0.00 W/m2
05:44 4.7 °C 3.0 °C 1019.5 hPa NW 4.7 km/h 8.0 km/h 89% 0.0 mm 0.00 W/m2
05:49 4.8 °C 3.1 °C 1019.9 hPa WNW 1.4 km/h 9.7 km/h 89% 0.0 mm 0.00 W/m2
05:54 4.8 °C 3.1 °C 1019.9 hPa WNW 3.2 km/h 4.8 km/h 89% 0.0 mm 0.00 W/m2
05:59 4.8 °C 3.1 °C 1019.9 hPa WNW 4.7 km/h 8.0 km/h 89% 0.0 mm 0.00 W/m2
06:04 4.8 °C 3.1 °C 1019.9 hPa WNW 3.2 km/h 3.2 km/h 89% 0.0 mm 0.00 W/m2
06:09 4.8 °C 3.1 °C 1019.9 hPa WNW 4.7 km/h 6.4 km/h 89% 0.0 mm 0.00 W/m2
06:14 4.8 °C 3.1 °C 1019.9 hPa WNW 3.2 km/h 3.2 km/h 89% 0.0 mm 5.00 W/m2
06:19 4.7 °C 3.0 °C 1019.9 hPa WNW 1.4 km/h 8.0 km/h 89% 0.0 mm 0.00 W/m2
06:24 4.7 °C 3.0 °C 1020.2 hPa WNW 11.3 km/h 11.3 km/h 89% 0.0 mm 0.00 W/m2
06:29 4.8 °C 3.3 °C 1020.2 hPa WNW 4.7 km/h 8.0 km/h 90% 0.0 mm 5.00 W/m2
06:34 4.8 °C 3.3 °C 1020.2 hPa WNW 3.2 km/h 4.8 km/h 90% 0.0 mm 7.00 W/m2
06:39 4.9 °C 3.4 °C 1020.2 hPa Calm   4.8 km/h 90% 0.0 mm 11.00 W/m2
06:44 4.9 °C 3.4 °C 1020.2 hPa WNW 1.4 km/h 4.8 km/h 90% 0.0 mm 16.00 W/m2
06:49 5.0 °C 3.5 °C 1020.2 hPa WNW 3.2 km/h 3.2 km/h 90% 0.0 mm 25.00 W/m2
06:54 5.0 °C 3.5 °C 1020.2 hPa Calm   3.2 km/h 90% 0.0 mm 32.00 W/m2
06:59 5.0 °C 3.5 °C 1020.2 hPa WNW 1.4 km/h 4.8 km/h 90% 0.0 mm 40.00 W/m2
07:04 5.1 °C 3.6 °C 1020.5 hPa WNW 3.2 km/h 4.8 km/h 90% 0.0 mm 49.00 W/m2
07:09 5.2 °C 3.7 °C 1020.5 hPa WNW 1.4 km/h 6.4 km/h 90% 0.0 mm 54.00 W/m2
07:14 5.4 °C 3.9 °C 1020.5 hPa WNW 12.9 km/h 12.9 km/h 90% 0.0 mm 74.00 W/m2
07:19 5.5 °C 4.0 °C 1020.5 hPa West 6.4 km/h 11.3 km/h 90% 0.0 mm 91.00 W/m2
07:24 5.7 °C 4.2 °C 1020.5 hPa West 4.7 km/h 8.0 km/h 90% 0.0 mm 98.00 W/m2
07:29 5.8 °C 4.1 °C 1020.5 hPa West 11.3 km/h 11.3 km/h 89% 0.0 mm 98.00 W/m2
07:34 5.9 °C 4.2 °C 1020.5 hPa WNW 7.9 km/h 11.3 km/h 89% 0.0 mm 102.00 W/m2
07:39 6.0 °C 4.3 °C 1020.5 hPa West 3.2 km/h 11.3 km/h 89% 0.0 mm 104.00 W/m2
07:44 6.0 °C 4.3 °C 1020.5 hPa West 7.9 km/h 14.5 km/h 89% 0.0 mm 97.00 W/m2
07:49 6.2 °C 4.4 °C 1020.5 hPa WNW 11.1 km/h 11.3 km/h 88% 0.0 mm 113.00 W/m2
07:54 6.4 °C 4.6 °C 1020.5 hPa WNW 7.9 km/h 9.7 km/h 88% 0.0 mm 116.00 W/m2
07:59 6.4 °C 4.4 °C 1020.5 hPa West 9.7 km/h 9.7 km/h 87% 0.0 mm 90.00 W/m2
08:04 6.4 °C 4.4 °C 1020.5 hPa WNW 4.7 km/h 9.7 km/h 87% 0.0 mm 86.00 W/m2
08:09 6.4 °C 4.4 °C 1020.5 hPa West 3.2 km/h 9.7 km/h 87% 0.0 mm 155.00 W/m2
08:14 6.4 °C 4.4 °C 1020.5 hPa NW 6.4 km/h 11.3 km/h 87% 0.0 mm 144.00 W/m2
08:19 6.4 °C 4.4 °C 1020.9 hPa West 4.7 km/h 12.9 km/h 87% 0.0 mm 128.00 W/m2
08:24 6.4 °C 4.4 °C 1020.9 hPa West 3.2 km/h 9.7 km/h 87% 0.0 mm 104.00 W/m2
08:29 6.4 °C 4.4 °C 1020.9 hPa Calm   3.2 km/h 87% 0.0 mm 91.00 W/m2
08:34 6.6 °C 4.6 °C 1020.9 hPa West 1.4 km/h 4.8 km/h 87% 0.0 mm 200.00 W/m2
08:39 6.9 °C 4.9 °C 1020.9 hPa WNW 7.9 km/h 11.3 km/h 87% 0.0 mm 163.00 W/m2
08:44 7.1 °C 4.9 °C 1020.9 hPa NW 7.9 km/h 12.9 km/h 86% 0.0 mm 320.00 W/m2
08:49 7.3 °C 4.9 °C 1020.9 hPa WNW 1.4 km/h 8.0 km/h 85% 0.0 mm 156.00 W/m2
08:54 7.5 °C 5.0 °C 1020.9 hPa West 6.4 km/h 14.5 km/h 84% 0.0 mm 176.00 W/m2
08:59 7.5 °C 4.6 °C 1021.2 hPa West 6.4 km/h 20.9 km/h 82% 0.0 mm 248.00 W/m2
09:04 7.7 °C 4.6 °C 1021.2 hPa West 3.2 km/h 12.9 km/h 81% 0.0 mm 188.00 W/m2
09:09 7.7 °C 4.5 °C 1021.2 hPa WNW 14.5 km/h 14.5 km/h 80% 0.0 mm 200.00 W/m2
09:14 7.7 °C 4.5 °C 1021.2 hPa West 6.4 km/h 20.9 km/h 80% 0.0 mm 267.00 W/m2
09:19 7.9 °C 4.7 °C 1021.2 hPa NW 17.7 km/h 20.9 km/h 80% 0.0 mm 251.00 W/m2
09:24 7.9 °C 4.5 °C 1021.2 hPa WNW 6.4 km/h 14.5 km/h 79% 0.0 mm 529.00 W/m2
09:29 8.4 °C 4.8 °C 1021.2 hPa West 9.7 km/h 14.5 km/h 78% 0.0 mm 176.00 W/m2
09:34 8.3 °C 4.7 °C 1021.6 hPa West 9.7 km/h 16.1 km/h 78% 0.0 mm 371.00 W/m2
09:39 8.1 °C 4.5 °C 1021.6 hPa West 6.4 km/h 14.5 km/h 78% 0.0 mm 195.00 W/m2
09:44 8.3 °C 4.9 °C 1021.6 hPa WNW 16.1 km/h 16.1 km/h 79% 0.0 mm 192.00 W/m2
09:49 8.4 °C 4.8 °C 1021.6 hPa West 6.4 km/h 14.5 km/h 78% 0.0 mm 290.00 W/m2
09:54 8.4 °C 4.8 °C 1021.6 hPa West 6.4 km/h 14.5 km/h 78% 0.0 mm 185.00 W/m2
09:59 8.4 °C 4.8 °C 1021.6 hPa NW 4.7 km/h 11.3 km/h 78% 0.0 mm 97.00 W/m2
10:04 8.3 °C 4.5 °C 1021.6 hPa West 9.7 km/h 16.1 km/h 77% 0.0 mm 221.00 W/m2
10:09 8.2 °C 4.4 °C 1021.6 hPa WNW 9.7 km/h 20.9 km/h 77% 0.0 mm 265.00 W/m2
10:14 8.3 °C 4.3 °C 1021.6 hPa NW 6.4 km/h 22.5 km/h 76% 0.0 mm 315.00 W/m2
10:19 8.5 °C 4.3 °C 1021.6 hPa NW 7.9 km/h 14.5 km/h 75% 0.0 mm 265.00 W/m2
10:24 8.3 °C 3.9 °C 1021.6 hPa WNW 13.0 km/h 20.9 km/h 74% 0.0 mm 160.00 W/m2
10:29 8.4 °C 4.2 °C 1021.6 hPa NW 11.1 km/h 14.5 km/h 75% 0.0 mm 211.00 W/m2
10:34 8.3 °C 4.3 °C 1021.6 hPa WNW 9.7 km/h 19.3 km/h 76% 0.0 mm 74.00 W/m2
10:39 8.0 °C 4.2 °C 1021.9 hPa WNW 6.4 km/h 19.3 km/h 77% 0.0 mm 100.00 W/m2
10:44 7.8 °C 4.2 °C 1021.9 hPa West 17.7 km/h 17.7 km/h 78% 0.0 mm 123.00 W/m2
10:49 7.7 °C 4.1 °C 1021.9 hPa WNW 16.3 km/h 19.3 km/h 78% 0.3 mm 141.00 W/m2
10:54 7.8 °C 4.4 °C 1021.9 hPa WNW 9.7 km/h 20.9 km/h 79% 0.3 mm 135.00 W/m2
10:59 7.6 °C 4.2 °C 1021.9 hPa West 13.0 km/h 24.1 km/h 79% 0.3 mm 167.00 W/m2
11:04 7.5 °C 4.1 °C 1021.9 hPa West 7.9 km/h 17.7 km/h 79% 0.3 mm 220.00 W/m2
11:09 7.6 °C 4.4 °C 1021.9 hPa West 20.9 km/h 22.5 km/h 80% 0.3 mm 241.00 W/m2
11:14 7.7 °C 4.5 °C 1021.9 hPa WNW 9.7 km/h 19.3 km/h 80% 0.3 mm 229.00 W/m2
11:19 7.7 °C 4.5 °C 1021.9 hPa West 13.0 km/h 20.9 km/h 80% 0.3 mm 253.00 W/m2
11:24 7.8 °C 4.6 °C 1021.9 hPa WNW 9.7 km/h 17.7 km/h 80% 0.3 mm 274.00 W/m2
11:29 7.9 °C 4.7 °C 1021.9 hPa WNW 6.4 km/h 17.7 km/h 80% 0.3 mm 237.00 W/m2
11:34 7.9 °C 4.7 °C 1021.9 hPa WNW 7.9 km/h 20.9 km/h 80% 0.3 mm 178.00 W/m2
11:39 7.9 °C 4.7 °C 1021.6 hPa WNW 11.1 km/h 20.9 km/h 80% 0.3 mm 218.00 W/m2
11:44 8.1 °C 4.9 °C 1021.6 hPa NW 17.7 km/h 17.7 km/h 80% 0.3 mm 251.00 W/m2
11:49 8.0 °C 4.6 °C 1021.6 hPa WNW 9.7 km/h 22.5 km/h 79% 0.0 mm 271.00 W/m2
11:54 8.2 °C 4.8 °C 1021.9 hPa WNW 3.2 km/h 16.1 km/h 79% 0.0 mm 153.00 W/m2
11:59 8.2 °C 4.8 °C 1021.9 hPa WNW 20.9 km/h 20.9 km/h 79% 0.0 mm 149.00 W/m2
12:04 8.1 °C 4.7 °C 1021.9 hPa West 13.0 km/h 19.3 km/h 79% 0.0 mm 193.00 W/m2
12:09 8.1 °C 4.7 °C 1021.9 hPa WNW 9.7 km/h 17.7 km/h 79% 0.0 mm 121.00 W/m2
12:14 8.0 °C 4.6 °C 1021.9 hPa WNW 13.0 km/h 17.7 km/h 79% 0.0 mm 213.00 W/m2
12:19 8.1 °C 4.7 °C 1021.9 hPa NW 14.3 km/h 16.1 km/h 79% 0.0 mm 172.00 W/m2
12:24 8.2 °C 4.8 °C 1021.9 hPa West 9.7 km/h 17.7 km/h 79% 0.0 mm 179.00 W/m2
12:29 8.2 °C 4.8 °C 1021.9 hPa West 16.3 km/h 17.7 km/h 79% 0.0 mm 114.00 W/m2
12:34 8.2 °C 4.8 °C 1021.9 hPa NW 13.0 km/h 19.3 km/h 79% 0.0 mm 141.00 W/m2
12:39 8.0 °C 4.6 °C 1021.6 hPa West 16.3 km/h 25.7 km/h 79% 0.0 mm 113.00 W/m2
12:44 7.9 °C 4.7 °C 1021.6 hPa West 7.9 km/h 20.9 km/h 80% 0.0 mm 120.00 W/m2
12:49 7.8 °C 4.7 °C 1021.6 hPa WNW 6.4 km/h 22.5 km/h 81% 0.0 mm 146.00 W/m2
12:54 7.9 °C 5.0 °C 1021.6 hPa WNW 9.7 km/h 17.7 km/h 82% 0.0 mm 239.00 W/m2
12:59 8.1 °C 5.4 °C 1021.6 hPa WNW 7.9 km/h 20.9 km/h 83% 0.0 mm 169.00 W/m2
13:04 8.2 °C 5.3 °C 1021.2 hPa West 14.3 km/h 22.5 km/h 82% 0.0 mm 114.00 W/m2
13:09 8.1 °C 5.2 °C 1021.2 hPa WNW 9.7 km/h 17.7 km/h 82% 0.0 mm 172.00 W/m2
13:14 8.2 °C 5.3 °C 1021.2 hPa West 11.1 km/h 19.3 km/h 82% 0.0 mm 306.00 W/m2
13:19 8.4 °C 5.5 °C 1021.2 hPa WNW 14.3 km/h 24.1 km/h 82% 0.0 mm 387.00 W/m2
13:24 8.6 °C 5.5 °C 1021.2 hPa West 11.1 km/h 29.0 km/h 81% 0.0 mm 339.00 W/m2
13:29 8.6 °C 5.3 °C 1021.2 hPa West 7.9 km/h 33.8 km/h 80% 0.0 mm 237.00 W/m2
13:34 8.6 °C 5.3 °C 1021.2 hPa NW 9.7 km/h 20.9 km/h 80% 0.0 mm 193.00 W/m2
13:39 8.4 °C 5.2 °C 1021.2 hPa WNW 6.4 km/h 27.4 km/h 80% 0.0 mm 142.00 W/m2
13:44 8.3 °C 5.2 °C 1021.2 hPa WNW 19.5 km/h 20.9 km/h 81% 0.0 mm 234.00 W/m2
13:49 8.2 °C 5.3 °C 1021.6 hPa West 25.7 km/h 25.7 km/h 82% 0.0 mm 167.00 W/m2
13:54 8.2 °C 5.5 °C 1021.6 hPa West 6.4 km/h 17.7 km/h 83% 0.0 mm 230.00 W/m2
13:59 8.2 °C 5.5 °C 1021.6 hPa WNW 13.0 km/h 17.7 km/h 83% 0.0 mm 179.00 W/m2
14:04 8.2 °C 5.5 °C 1021.6 hPa WNW 11.1 km/h 17.7 km/h 83% 0.0 mm 120.00 W/m2
14:09 8.1 °C 5.4 °C 1021.6 hPa West 16.3 km/h 22.5 km/h 83% 0.0 mm 142.00 W/m2
14:14 8.0 °C 5.3 °C 1021.6 hPa WNW 11.1 km/h 22.5 km/h 83% 0.0 mm 163.00 W/m2
14:19 8.0 °C 5.5 °C 1021.6 hPa West 4.7 km/h 24.1 km/h 84% 0.0 mm 178.00 W/m2
14:24 7.9 °C 5.4 °C 1021.6 hPa WNW 3.2 km/h 22.5 km/h 84% 0.0 mm 72.00 W/m2
14:29 7.8 °C 5.4 °C 1021.9 hPa West 4.7 km/h 25.7 km/h 85% 0.0 mm 56.00 W/m2
14:34 7.8 °C 5.4 °C 1021.6 hPa WNW 11.1 km/h 11.3 km/h 85% 0.0 mm 65.00 W/m2
14:39 7.8 °C 5.6 °C 1021.6 hPa WNW 11.1 km/h 12.9 km/h 86% 0.0 mm 84.00 W/m2
14:44 7.8 °C 5.6 °C 1021.6 hPa WNW 11.1 km/h 22.5 km/h 86% 0.0 mm 42.00 W/m2
14:49 7.8 °C 5.6 °C 1021.6 hPa West 7.9 km/h 17.7 km/h 86% 0.0 mm 65.00 W/m2
14:54 7.8 °C 5.6 °C 1021.6 hPa West 6.4 km/h 12.9 km/h 86% 0.0 mm 105.00 W/m2
14:59 7.9 °C 5.7 °C 1021.6 hPa West 16.1 km/h 16.1 km/h 86% 0.0 mm 74.00 W/m2
15:04 7.9 °C 5.7 °C 1021.6 hPa West 14.3 km/h 17.7 km/h 86% 0.0 mm 130.00 W/m2
15:09 7.9 °C 5.9 °C 1021.6 hPa WNW 13.0 km/h 25.7 km/h 87% 0.0 mm 239.00 W/m2
15:14 8.0 °C 6.0 °C 1021.2 hPa West 13.0 km/h 17.7 km/h 87% 0.0 mm 176.00 W/m2
15:19 8.0 °C 6.0 °C 1021.2 hPa West 16.3 km/h 16.1 km/h 87% 0.0 mm 141.00 W/m2
15:24 8.0 °C 6.0 °C 1021.6 hPa NW 7.9 km/h 19.3 km/h 87% 0.0 mm 116.00 W/m2
15:29 8.0 °C 6.0 °C 1021.6 hPa West 9.7 km/h 12.9 km/h 87% 0.0 mm 158.00 W/m2
15:34 8.1 °C 6.1 °C 1021.6 hPa West 14.3 km/h 17.7 km/h 87% 0.0 mm 98.00 W/m2
15:39 8.1 °C 6.1 °C 1021.6 hPa WNW 4.7 km/h 11.3 km/h 87% 0.0 mm 90.00 W/m2
15:44 8.2 °C 6.2 °C 1021.6 hPa WNW 13.0 km/h 19.3 km/h 87% 0.0 mm 183.00 W/m2
15:49 8.2 °C 6.2 °C 1021.6 hPa WNW 11.1 km/h 22.5 km/h 87% 0.0 mm 153.00 W/m2
15:54 8.3 °C 6.3 °C 1021.6 hPa NW 13.0 km/h 12.9 km/h 87% 0.0 mm 123.00 W/m2
15:59 8.3 °C 6.1 °C 1021.6 hPa West 14.3 km/h 19.3 km/h 86% 0.0 mm 95.00 W/m2
16:04 8.3 °C 6.1 °C 1021.6 hPa West 7.9 km/h 14.5 km/h 86% 0.0 mm 84.00 W/m2
16:09 8.3 °C 6.1 °C 1021.6 hPa NW 1.4 km/h 12.9 km/h 86% 0.0 mm 70.00 W/m2
16:14 8.4 °C 6.2 °C 1021.6 hPa WSW 7.9 km/h 11.3 km/h 86% 0.0 mm 70.00 W/m2
16:19 8.4 °C 6.2 °C 1021.6 hPa West 9.7 km/h 11.3 km/h 86% 0.0 mm 104.00 W/m2
16:24 8.4 °C 6.2 °C 1021.6 hPa West 14.3 km/h 14.5 km/h 86% 0.0 mm 127.00 W/m2
16:29 8.4 °C 6.2 °C 1021.6 hPa WNW 9.7 km/h 14.5 km/h 86% 0.0 mm 74.00 W/m2
16:34 8.4 °C 6.2 °C 1021.9 hPa West 11.1 km/h 14.5 km/h 86% 0.0 mm 42.00 W/m2
16:39 8.4 °C 6.2 °C 1021.9 hPa WNW 6.4 km/h 16.1 km/h 86% 0.0 mm 51.00 W/m2
16:44 8.4 °C 6.2 °C 1021.9 hPa WNW 7.9 km/h 17.7 km/h 86% 0.0 mm 93.00 W/m2
16:49 8.5 °C 6.3 °C 1021.9 hPa West 9.7 km/h 12.9 km/h 86% 0.0 mm 62.00 W/m2
16:54 8.5 °C 6.1 °C 1022.2 hPa WNW 11.1 km/h 14.5 km/h 85% 0.0 mm 40.00 W/m2
16:59 8.5 °C 6.1 °C 1021.9 hPa West 9.7 km/h 14.5 km/h 85% 0.0 mm 42.00 W/m2
17:04 8.4 °C 6.2 °C 1021.9 hPa West 14.3 km/h 16.1 km/h 86% 0.0 mm 44.00 W/m2
17:09 8.4 °C 6.0 °C 1021.9 hPa West 13.0 km/h 12.9 km/h 85% 0.0 mm 62.00 W/m2
17:14 8.5 °C 6.1 °C 1021.9 hPa West 7.9 km/h 12.9 km/h 85% 0.0 mm 65.00 W/m2
17:19 8.5 °C 6.1 °C 1021.9 hPa WNW 6.4 km/h 14.5 km/h 85% 0.0 mm 49.00 W/m2
17:24 8.5 °C 6.1 °C 1021.9 hPa West 4.7 km/h 9.7 km/h 85% 0.0 mm 49.00 W/m2
17:29 8.5 °C 6.3 °C 1022.2 hPa WNW 3.2 km/h 8.0 km/h 86% 0.0 mm 40.00 W/m2
17:34 8.6 °C 6.4 °C 1022.2 hPa West 7.9 km/h 12.9 km/h 86% 0.0 mm 53.00 W/m2
17:39 8.7 °C 6.5 °C 1022.2 hPa West 4.7 km/h 11.3 km/h 86% 0.0 mm 58.00 W/m2
17:44 8.7 °C 6.5 °C 1022.2 hPa West 4.7 km/h 14.5 km/h 86% 0.0 mm 58.00 W/m2
17:49 8.8 °C 6.6 °C 1022.2 hPa West 11.1 km/h 12.9 km/h 86% 0.0 mm 40.00 W/m2
17:54 8.7 °C 6.5 °C 1022.2 hPa West 11.1 km/h 11.3 km/h 86% 0.0 mm 42.00 W/m2
17:59 8.7 °C 6.5 °C 1022.2 hPa West 9.7 km/h 12.9 km/h 86% 0.0 mm 40.00 W/m2
18:04 8.5 °C 6.3 °C 1022.6 hPa West 7.9 km/h 9.7 km/h 86% 0.0 mm 18.00 W/m2
18:09 8.4 °C 6.2 °C 1022.6 hPa WNW 7.9 km/h 11.3 km/h 86% 0.0 mm 14.00 W/m2
18:14 8.3 °C 6.1 °C 1022.6 hPa West 7.9 km/h 9.7 km/h 86% 0.0 mm 5.00 W/m2
18:19 8.3 °C 6.3 °C 1022.6 hPa West 7.9 km/h 9.7 km/h 87% 0.0 mm 0.00 W/m2
18:24 8.2 °C 6.2 °C 1022.6 hPa WNW 7.9 km/h 11.3 km/h 87% 0.0 mm 0.00 W/m2
18:29 8.0 °C 6.0 °C 1022.6 hPa WNW 6.4 km/h 11.3 km/h 87% 0.0 mm 0.00 W/m2
18:34 7.9 °C 6.0 °C 1022.9 hPa WNW 7.9 km/h 9.7 km/h 88% 0.0 mm 0.00 W/m2
18:39 7.9 °C 6.0 °C 1022.9 hPa West 6.4 km/h 9.7 km/h 88% 0.0 mm 0.00 W/m2
18:43 7.8 °C 5.9 °C 1022.9 hPa West 1.4 km/h 8.0 km/h 88% 0.0 mm 0.00 W/m2
18:49 7.7 °C 5.8 °C 1022.6 hPa West 3.2 km/h 4.8 km/h 88% 0.0 mm 0.00 W/m2
18:54 7.6 °C 5.7 °C 1022.9 hPa WNW 1.4 km/h 4.8 km/h 88% 0.0 mm 0.00 W/m2
18:59 7.5 °C 5.8 °C 1022.9 hPa WNW 4.7 km/h 8.0 km/h 89% 0.0 mm 0.00 W/m2
19:04 7.4 °C 5.7 °C 1022.9 hPa WNW 4.7 km/h 6.4 km/h 89% 0.0 mm 0.00 W/m2
19:09 7.3 °C 5.6 °C 1022.9 hPa WNW 3.2 km/h 6.4 km/h 89% 0.0 mm 0.00 W/m2
19:14 7.2 °C 5.5 °C 1022.9 hPa WNW 4.7 km/h 8.0 km/h 89% 0.0 mm 0.00 W/m2
19:19 7.2 °C 5.7 °C 1023.2 hPa WNW 1.4 km/h 1.6 km/h 90% 0.0 mm 0.00 W/m2
19:24 7.1 °C 5.6 °C 1023.2 hPa Calm   1.6 km/h 90% 0.0 mm 0.00 W/m2
19:29 7.1 °C 5.6 °C 1023.2 hPa WNW 1.4 km/h 3.2 km/h 90% 0.0 mm 0.00 W/m2
19:34 7.1 °C 5.6 °C 1023.2 hPa Calm   4.8 km/h 90% 0.0 mm 0.00 W/m2
19:39 7.2 °C 5.7 °C 1023.2 hPa Calm   1.6 km/h 90% 0.0 mm 0.00 W/m2
19:44 7.1 °C 5.6 °C 1023.2 hPa WNW 4.8 km/h 4.8 km/h 90% 0.0 mm 0.00 W/m2
19:49 7.0 °C 5.5 °C 1023.2 hPa Calm   6.4 km/h 90% 0.0 mm 0.00 W/m2
19:54 7.0 °C 5.5 °C 1023.2 hPa Calm     90% 0.0 mm 0.00 W/m2
19:59 7.0 °C 5.6 °C 1023.2 hPa Calm   4.8 km/h 91% 0.0 mm 0.00 W/m2
20:04 7.0 °C 5.6 °C 1023.6 hPa Calm     91% 0.0 mm 0.00 W/m2
20:09 7.0 °C 5.6 °C 1023.6 hPa Calm     91% 0.0 mm 0.00 W/m2
20:14 6.9 °C 5.5 °C 1023.6 hPa Calm     91% 0.0 mm 0.00 W/m2
20:19 6.9 °C 5.5 °C 1023.6 hPa Calm     91% 0.0 mm 0.00 W/m2
20:24 6.8 °C 5.4 °C 1023.6 hPa Calm     91% 0.0 mm 0.00 W/m2
20:29 6.7 °C 5.3 °C 1023.6 hPa Calm   1.6 km/h 91% 0.0 mm 0.00 W/m2
20:34 6.5 °C 5.1 °C 1023.9 hPa Calm   1.6 km/h 91% 0.0 mm 0.00 W/m2
20:39 6.6 °C 5.2 °C 1023.9 hPa Calm     91% 0.0 mm 0.00 W/m2
20:44 6.7 °C 5.3 °C 1023.9 hPa Calm     91% 0.0 mm 0.00 W/m2
20:49 6.7 °C 5.3 °C 1023.9 hPa WNW 1.6 km/h 1.6 km/h 91% 0.0 mm 0.00 W/m2
20:54 6.7 °C 5.3 °C 1023.9 hPa Calm   3.2 km/h 91% 0.0 mm 0.00 W/m2
20:59 6.8 °C 5.4 °C 1023.9 hPa Calm   3.2 km/h 91% 0.0 mm 0.00 W/m2
21:04 6.8 °C 5.6 °C 1023.9 hPa Calm     92% 0.0 mm 0.00 W/m2
21:09 6.7 °C 5.5 °C 1023.9 hPa Calm   1.6 km/h 92% 0.0 mm 0.00 W/m2
21:14 6.7 °C 5.5 °C 1023.9 hPa Calm     92% 0.0 mm 0.00 W/m2
21:19 6.7 °C 5.5 °C 1023.9 hPa Calm     92% 0.0 mm 0.00 W/m2
21:24 6.8 °C 5.6 °C 1024.3 hPa Calm     92% 0.0 mm 0.00 W/m2
21:29 6.8 °C 5.6 °C 1023.9 hPa Calm   1.6 km/h 92% 0.0 mm 0.00 W/m2
21:34 6.9 °C 5.7 °C 1024.3 hPa Calm     92% 0.0 mm 0.00 W/m2
21:39 6.9 °C 5.7 °C 1024.3 hPa Calm   1.6 km/h 92% 0.0 mm 0.00 W/m2
21:44 6.8 °C 5.6 °C 1024.3 hPa Calm   1.6 km/h 92% 0.0 mm 0.00 W/m2
21:49 6.9 °C 5.7 °C 1024.3 hPa Calm     92% 0.0 mm 0.00 W/m2
21:54 6.8 °C 5.6 °C 1024.3 hPa Calm     92% 0.0 mm 0.00 W/m2
21:59 6.8 °C 5.6 °C 1024.3 hPa Calm     92% 0.0 mm 0.00 W/m2
22:04 6.7 °C 5.5 °C 1024.3 hPa Calm     92% 0.0 mm 0.00 W/m2
22:09 6.7 °C 5.5 °C 1024.3 hPa Calm     92% 0.0 mm 0.00 W/m2
22:14 6.7 °C 5.5 °C 1024.3 hPa Calm   1.6 km/h 92% 0.0 mm 0.00 W/m2
22:19 6.7 °C 5.5 °C 1024.3 hPa WNW 1.4 km/h 4.8 km/h 92% 0.0 mm 0.00 W/m2
22:24 6.7 °C 5.6 °C 1024.3 hPa WNW 3.2 km/h 4.8 km/h 93% 0.0 mm 0.00 W/m2